sensor_id;sensor_type;location;lat;lon;timestamp;temperature;humidity
13659;DHT22;6902;52.158;11.574;2022-08-19T00:01:36;21.70;99.90
13659;DHT22;6902;52.158;11.574;2022-08-19T00:04:08;21.70;99.90
13659;DHT22;6902;52.158;11.574;2022-08-19T00:06:37;21.50;99.90
13659;DHT22;6902;52.158;11.574;2022-08-19T00:09:05;21.50;99.90
13659;DHT22;6902;52.158;11.574;2022-08-19T00:11:33;21.60;99.90
13659;DHT22;6902;52.158;11.574;2022-08-19T00:14:04;21.60;99.90
13659;DHT22;6902;52.158;11.574;2022-08-19T00:26:24;21.60;99.90
13659;DHT22;6902;52.158;11.574;2022-08-19T00:28:51;21.50;99.90
13659;DHT22;6902;52.158;11.574;2022-08-19T00:31:18;21.40;99.90
13659;DHT22;6902;52.158;11.574;2022-08-19T00:33:46;21.30;99.90
13659;DHT22;6902;52.158;11.574;2022-08-19T00:36:13;21.30;99.90
13659;DHT22;6902;52.158;11.574;2022-08-19T00:38:42;21.30;99.90
13659;DHT22;6902;52.158;11.574;2022-08-19T00:41:12;21.20;99.90
13659;DHT22;6902;52.158;11.574;2022-08-19T00:46:08;21.20;99.90
13659;DHT22;6902;52.158;11.574;2022-08-19T00:48:35;21.10;99.90
13659;DHT22;6902;52.158;11.574;2022-08-19T00:51:04;21.10;99.90
13659;DHT22;6902;52.158;11.574;2022-08-19T00:53:32;21.10;99.90
13659;DHT22;6902;52.158;11.574;2022-08-19T00:56:02;21.00;99.90
13659;DHT22;6902;52.158;11.574;2022-08-19T00:58:34;21.00;99.90
13659;DHT22;6902;52.158;11.574;2022-08-19T01:01:03;21.00;99.90
13659;DHT22;6902;52.158;11.574;2022-08-19T01:03:30;20.90;99.90
13659;DHT22;6902;52.158;11.574;2022-08-19T01:05:57;20.90;99.90
13659;DHT22;6902;52.158;11.574;2022-08-19T01:08:26;20.90;99.90
13659;DHT22;6902;52.158;11.574;2022-08-19T01:10:55;20.90;99.90
13659;DHT22;6902;52.158;11.574;2022-08-19T01:13:25;20.90;99.90
13659;DHT22;6902;52.158;11.574;2022-08-19T01:18:24;20.80;99.90
13659;DHT22;6902;52.158;11.574;2022-08-19T01:20:54;20.90;99.90
13659;DHT22;6902;52.158;11.574;2022-08-19T01:23:24;20.80;99.90
13659;DHT22;6902;52.158;11.574;2022-08-19T01:28:36;20.80;99.90
13659;DHT22;6902;52.158;11.574;2022-08-19T01:31:04;20.80;99.90
13659;DHT22;6902;52.158;11.574;2022-08-19T01:33:32;20.80;99.90
13659;DHT22;6902;52.158;11.574;2022-08-19T01:36:05;20.80;99.90
13659;DHT22;6902;52.158;11.574;2022-08-19T01:38:37;20.80;99.90
13659;DHT22;6902;52.158;11.574;2022-08-19T01:41:05;20.70;99.90
13659;DHT22;6902;52.158;11.574;2022-08-19T01:43:32;20.70;99.90
13659;DHT22;6902;52.158;11.574;2022-08-19T01:45:59;20.70;99.90
13659;DHT22;6902;52.158;11.574;2022-08-19T01:48:27;20.70;99.90
13659;DHT22;6902;52.158;11.574;2022-08-19T01:50:59;20.70;99.90
13659;DHT22;6902;52.158;11.574;2022-08-19T01:53:25;20.70;99.90
13659;DHT22;6902;52.158;11.574;2022-08-19T01:55:54;20.70;99.90
13659;DHT22;6902;52.158;11.574;2022-08-19T01:58:25;20.70;99.90
13659;DHT22;6902;52.158;11.574;2022-08-19T02:00:56;20.70;99.90
13659;DHT22;6902;52.158;11.574;2022-08-19T02:03:23;20.70;99.90
13659;DHT22;6902;52.158;11.574;2022-08-19T02:05:55;20.60;99.90
13659;DHT22;6902;52.158;11.574;2022-08-19T02:08:22;20.60;99.90
13659;DHT22;6902;52.158;11.574;2022-08-19T02:10:49;20.60;99.90
13659;DHT22;6902;52.158;11.574;2022-08-19T02:13:18;20.60;99.90
13659;DHT22;6902;52.158;11.574;2022-08-19T02:15:45;20.60;99.90
13659;DHT22;6902;52.158;11.574;2022-08-19T02:18:13;20.60;99.90
13659;DHT22;6902;52.158;11.574;2022-08-19T02:20:42;20.60;99.90
13659;DHT22;6902;52.158;11.574;2022-08-19T02:23:11;20.60;99.90
13659;DHT22;6902;52.158;11.574;2022-08-19T02:25:40;20.60;99.90
13659;DHT22;6902;52.158;11.574;2022-08-19T02:28:07;20.60;99.90
13659;DHT22;6902;52.158;11.574;2022-08-19T02:30:36;20.60;99.90
13659;DHT22;6902;52.158;11.574;2022-08-19T02:33:04;20.60;99.90
13659;DHT22;6902;52.158;11.574;2022-08-19T02:35:31;20.60;99.90
13659;DHT22;6902;52.158;11.574;2022-08-19T02:37:58;20.60;99.90
13659;DHT22;6902;52.158;11.574;2022-08-19T02:40:48;20.60;99.90
13659;DHT22;6902;52.158;11.574;2022-08-19T02:45:45;19.20;99.90
13659;DHT22;6902;52.158;11.574;2022-08-19T02:48:14;20.50;99.90
13659;DHT22;6902;52.158;11.574;2022-08-19T02:50:41;20.50;99.90
13659;DHT22;6902;52.158;11.574;2022-08-19T02:53:08;20.50;99.90
13659;DHT22;6902;52.158;11.574;2022-08-19T02:55:42;20.50;99.90
13659;DHT22;6902;52.158;11.574;2022-08-19T02:58:09;20.40;99.90
13659;DHT22;6902;52.158;11.574;2022-08-19T03:00:41;20.40;99.90
13659;DHT22;6902;52.158;11.574;2022-08-19T03:03:11;20.40;99.90
13659;DHT22;6902;52.158;11.574;2022-08-19T03:05:38;20.40;99.90
13659;DHT22;6902;52.158;11.574;2022-08-19T03:08:06;20.40;99.90
13659;DHT22;6902;52.158;11.574;2022-08-19T03:13:07;20.40;99.90
13659;DHT22;6902;52.158;11.574;2022-08-19T03:15:35;20.30;99.90
13659;DHT22;6902;52.158;11.574;2022-08-19T03:18:05;20.30;99.90
13659;DHT22;6902;52.158;11.574;2022-08-19T03:20:33;20.30;99.90
13659;DHT22;6902;52.158;11.574;2022-08-19T03:23:00;20.30;99.90
13659;DHT22;6902;52.158;11.574;2022-08-19T03:25:27;20.30;99.90
13659;DHT22;6902;52.158;11.574;2022-08-19T03:27:54;20.30;99.90
13659;DHT22;6902;52.158;11.574;2022-08-19T03:30:21;20.30;99.90
13659;DHT22;6902;52.158;11.574;2022-08-19T03:32:48;20.30;99.90
13659;DHT22;6902;52.158;11.574;2022-08-19T03:35:16;20.20;99.90
13659;DHT22;6902;52.158;11.574;2022-08-19T03:37:44;20.30;99.90
13659;DHT22;6902;52.158;11.574;2022-08-19T03:40:11;20.20;99.90
13659;DHT22;6902;52.158;11.574;2022-08-19T03:42:38;20.20;99.90
13659;DHT22;6902;52.158;11.574;2022-08-19T03:45:08;20.20;99.90
13659;DHT22;6902;52.158;11.574;2022-08-19T03:47:36;20.20;99.90
13659;DHT22;6902;52.158;11.574;2022-08-19T03:50:03;20.20;99.90
13659;DHT22;6902;52.158;11.574;2022-08-19T03:52:31;20.20;99.90
13659;DHT22;6902;52.158;11.574;2022-08-19T03:54:59;20.20;99.90
13659;DHT22;6902;52.158;11.574;2022-08-19T03:57:26;20.20;99.90
13659;DHT22;6902;52.158;11.574;2022-08-19T03:59:53;20.20;99.90
13659;DHT22;6902;52.158;11.574;2022-08-19T04:02:20;20.20;99.90
13659;DHT22;6902;52.158;11.574;2022-08-19T04:04:47;20.10;99.90
13659;DHT22;6902;52.158;11.574;2022-08-19T04:07:14;20.10;99.90
13659;DHT22;6902;52.158;11.574;2022-08-19T04:09:44;20.10;99.90
13659;DHT22;6902;52.158;11.574;2022-08-19T04:12:12;20.10;99.90
13659;DHT22;6902;52.158;11.574;2022-08-19T04:14:43;20.00;99.90
13659;DHT22;6902;52.158;11.574;2022-08-19T04:17:10;20.00;99.90
13659;DHT22;6902;52.158;11.574;2022-08-19T04:19:38;20.00;99.90
13659;DHT22;6902;52.158;11.574;2022-08-19T04:22:05;20.00;99.90
13659;DHT22;6902;52.158;11.574;2022-08-19T04:24:34;19.90;99.90
13659;DHT22;6902;52.158;11.574;2022-08-19T04:27:01;20.00;99.90
13659;DHT22;6902;52.158;11.574;2022-08-19T04:29:33;19.90;99.90
13659;DHT22;6902;52.158;11.574;2022-08-19T04:32:00;19.90;99.90
13659;DHT22;6902;52.158;11.574;2022-08-19T04:34:28;19.90;99.90
13659;DHT22;6902;52.158;11.574;2022-08-19T04:36:57;19.90;99.90
13659;DHT22;6902;52.158;11.574;2022-08-19T04:39:27;19.90;99.90
13659;DHT22;6902;52.158;11.574;2022-08-19T04:42:16;19.90;99.90
13659;DHT22;6902;52.158;11.574;2022-08-19T04:45:02;19.90;99.90
13659;DHT22;6902;52.158;11.574;2022-08-19T04:47:29;19.90;99.90
13659;DHT22;6902;52.158;11.574;2022-08-19T04:49:58;19.90;99.90
13659;DHT22;6902;52.158;11.574;2022-08-19T04:52:25;19.90;99.90
13659;DHT22;6902;52.158;11.574;2022-08-19T04:54:52;20.00;99.90
13659;DHT22;6902;52.158;11.574;2022-08-19T04:57:21;20.00;99.90
13659;DHT22;6902;52.158;11.574;2022-08-19T04:59:49;20.00;99.90
13659;DHT22;6902;52.158;11.574;2022-08-19T05:02:21;20.00;99.90
13659;DHT22;6902;52.158;11.574;2022-08-19T05:04:51;20.00;99.90
13659;DHT22;6902;52.158;11.574;2022-08-19T05:07:18;20.00;99.90
13659;DHT22;6902;52.158;11.574;2022-08-19T05:09:45;20.00;99.90
13659;DHT22;6902;52.158;11.574;2022-08-19T05:12:12;19.90;99.90
13659;DHT22;6902;52.158;11.574;2022-08-19T05:14:39;20.00;99.90
13659;DHT22;6902;52.158;11.574;2022-08-19T05:17:06;20.00;99.90
13659;DHT22;6902;52.158;11.574;2022-08-19T05:19:34;20.00;99.90
13659;DHT22;6902;52.158;11.574;2022-08-19T05:22:19;20.00;99.90
13659;DHT22;6902;52.158;11.574;2022-08-19T05:25:02;20.00;99.90
13659;DHT22;6902;52.158;11.574;2022-08-19T05:27:31;20.00;99.90
13659;DHT22;6902;52.158;11.574;2022-08-19T05:29:58;20.00;99.90
13659;DHT22;6902;52.158;11.574;2022-08-19T05:32:25;20.00;99.90
13659;DHT22;6902;52.158;11.574;2022-08-19T05:34:54;20.00;99.90
13659;DHT22;6902;52.158;11.574;2022-08-19T05:37:21;20.00;99.90
13659;DHT22;6902;52.158;11.574;2022-08-19T05:39:48;20.00;99.90
13659;DHT22;6902;52.158;11.574;2022-08-19T05:42:16;20.00;99.90
13659;DHT22;6902;52.158;11.574;2022-08-19T05:44:44;20.00;99.90
13659;DHT22;6902;52.158;11.574;2022-08-19T05:47:13;20.00;99.90
13659;DHT22;6902;52.158;11.574;2022-08-19T05:49:42;20.00;99.90
13659;DHT22;6902;52.158;11.574;2022-08-19T05:52:12;20.00;99.90
13659;DHT22;6902;52.158;11.574;2022-08-19T05:54:41;20.10;99.90
13659;DHT22;6902;52.158;11.574;2022-08-19T05:57:08;20.00;99.90
13659;DHT22;6902;52.158;11.574;2022-08-19T05:59:36;20.10;99.90
13659;DHT22;6902;52.158;11.574;2022-08-19T06:02:04;20.10;99.90
13659;DHT22;6902;52.158;11.574;2022-08-19T06:04:32;20.10;99.90
13659;DHT22;6902;52.158;11.574;2022-08-19T06:06:59;20.00;99.90
13659;DHT22;6902;52.158;11.574;2022-08-19T06:09:29;20.00;99.90
13659;DHT22;6902;52.158;11.574;2022-08-19T06:11:57;20.10;99.90
13659;DHT22;6902;52.158;11.574;2022-08-19T06:14:27;20.10;99.90
13659;DHT22;6902;52.158;11.574;2022-08-19T06:16:54;20.00;99.90
13659;DHT22;6902;52.158;11.574;2022-08-19T06:19:22;20.00;99.90
13659;DHT22;6902;52.158;11.574;2022-08-19T06:21:52;20.10;99.90
13659;DHT22;6902;52.158;11.574;2022-08-19T06:24:23;22.30;99.90
13659;DHT22;6902;52.158;11.574;2022-08-19T06:26:54;20.00;99.90
13659;DHT22;6902;52.158;11.574;2022-08-19T06:29:24;20.00;99.90
13659;DHT22;6902;52.158;11.574;2022-08-19T06:31:53;20.00;99.90
13659;DHT22;6902;52.158;11.574;2022-08-19T06:34:22;20.00;99.90
13659;DHT22;6902;52.158;11.574;2022-08-19T06:36:51;20.00;99.90
13659;DHT22;6902;52.158;11.574;2022-08-19T06:39:21;20.00;99.90
13659;DHT22;6902;52.158;11.574;2022-08-19T06:41:51;20.00;99.90
13659;DHT22;6902;52.158;11.574;2022-08-19T06:44:21;20.10;99.90
13659;DHT22;6902;52.158;11.574;2022-08-19T06:46:49;20.00;99.90
13659;DHT22;6902;52.158;11.574;2022-08-19T06:49:17;20.00;99.90
13659;DHT22;6902;52.158;11.574;2022-08-19T06:51:46;20.00;99.90
13659;DHT22;6902;52.158;11.574;2022-08-19T06:54:14;20.00;99.90
13659;DHT22;6902;52.158;11.574;2022-08-19T06:56:42;19.90;99.90
13659;DHT22;6902;52.158;11.574;2022-08-19T06:59:12;19.90;99.90
13659;DHT22;6902;52.158;11.574;2022-08-19T07:01:43;19.90;99.90
13659;DHT22;6902;52.158;11.574;2022-08-19T07:04:11;19.90;99.90
13659;DHT22;6902;52.158;11.574;2022-08-19T07:06:39;19.90;99.90
13659;DHT22;6902;52.158;11.574;2022-08-19T07:09:07;19.90;99.90
13659;DHT22;6902;52.158;11.574;2022-08-19T07:11:35;19.90;99.90
13659;DHT22;6902;52.158;11.574;2022-08-19T07:14:02;19.80;99.90
13659;DHT22;6902;52.158;11.574;2022-08-19T07:16:30;19.90;99.90
13659;DHT22;6902;52.158;11.574;2022-08-19T07:18:59;19.90;99.90
13659;DHT22;6902;52.158;11.574;2022-08-19T07:21:27;19.90;99.90
13659;DHT22;6902;52.158;11.574;2022-08-19T07:23:56;19.90;99.90
13659;DHT22;6902;52.158;11.574;2022-08-19T07:26:26;19.90;99.90
13659;DHT22;6902;52.158;11.574;2022-08-19T07:28:54;19.90;99.90
13659;DHT22;6902;52.158;11.574;2022-08-19T07:31:24;20.00;99.90
13659;DHT22;6902;52.158;11.574;2022-08-19T07:33:53;20.00;99.90
13659;DHT22;6902;52.158;11.574;2022-08-19T07:36:25;20.10;99.90
13659;DHT22;6902;52.158;11.574;2022-08-19T07:38:54;20.10;99.90
13659;DHT22;6902;52.158;11.574;2022-08-19T07:41:24;20.20;99.90
13659;DHT22;6902;52.158;11.574;2022-08-19T07:43:52;20.20;99.90
13659;DHT22;6902;52.158;11.574;2022-08-19T07:46:19;20.20;99.90
13659;DHT22;6902;52.158;11.574;2022-08-19T07:48:48;20.20;99.90
13659;DHT22;6902;52.158;11.574;2022-08-19T07:51:18;20.20;99.90
13659;DHT22;6902;52.158;11.574;2022-08-19T07:53:48;20.30;99.90
13659;DHT22;6902;52.158;11.574;2022-08-19T07:56:17;20.30;99.90
13659;DHT22;6902;52.158;11.574;2022-08-19T07:58:47;20.30;99.90
13659;DHT22;6902;52.158;11.574;2022-08-19T08:01:16;20.30;99.90
13659;DHT22;6902;52.158;11.574;2022-08-19T08:03:44;20.30;99.90
13659;DHT22;6902;52.158;11.574;2022-08-19T08:06:28;20.30;99.90
13659;DHT22;6902;52.158;11.574;2022-08-19T08:09:29;20.30;99.90
13659;DHT22;6902;52.158;11.574;2022-08-19T08:11:58;20.30;99.90
13659;DHT22;6902;52.158;11.574;2022-08-19T08:14:29;20.30;99.90
13659;DHT22;6902;52.158;11.574;2022-08-19T08:16:57;20.30;99.90
13659;DHT22;6902;52.158;11.574;2022-08-19T08:19:26;20.30;99.90
13659;DHT22;6902;52.158;11.574;2022-08-19T08:21:54;20.30;99.90
13659;DHT22;6902;52.158;11.574;2022-08-19T08:24:22;20.30;99.90
13659;DHT22;6902;52.158;11.574;2022-08-19T08:26:51;20.30;99.90
13659;DHT22;6902;52.158;11.574;2022-08-19T08:29:18;20.30;99.90
13659;DHT22;6902;52.158;11.574;2022-08-19T08:31:45;20.30;99.90
13659;DHT22;6902;52.158;11.574;2022-08-19T08:34:13;20.30;99.90
13659;DHT22;6902;52.158;11.574;2022-08-19T08:36:43;20.30;99.90
13659;DHT22;6902;52.158;11.574;2022-08-19T08:39:11;20.30;99.90
13659;DHT22;6902;52.158;11.574;2022-08-19T08:41:47;20.30;99.90
13659;DHT22;6902;52.158;11.574;2022-08-19T08:44:22;20.30;99.90
13659;DHT22;6902;52.158;11.574;2022-08-19T08:46:53;20.30;99.90
13659;DHT22;6902;52.158;11.574;2022-08-19T08:49:29;20.30;99.90
13659;DHT22;6902;52.158;11.574;2022-08-19T08:52:02;20.30;99.90
13659;DHT22;6902;52.158;11.574;2022-08-19T08:54:34;20.30;99.90
13659;DHT22;6902;52.158;11.574;2022-08-19T08:57:06;20.40;99.90
13659;DHT22;6902;52.158;11.574;2022-08-19T08:59:38;20.40;99.90
13659;DHT22;6902;52.158;11.574;2022-08-19T09:02:07;20.40;99.90
13659;DHT22;6902;52.158;11.574;2022-08-19T09:04:35;20.50;99.90
13659;DHT22;6902;52.158;11.574;2022-08-19T09:07:20;20.50;99.90
13659;DHT22;6902;52.158;11.574;2022-08-19T09:09:50;20.60;99.90
13659;DHT22;6902;52.158;11.574;2022-08-19T09:12:23;20.60;99.90
13659;DHT22;6902;52.158;11.574;2022-08-19T09:14:57;20.60;99.90
13659;DHT22;6902;52.158;11.574;2022-08-19T09:17:29;20.60;99.90
13659;DHT22;6902;52.158;11.574;2022-08-19T09:20:00;20.70;99.90
13659;DHT22;6902;52.158;11.574;2022-08-19T09:22:30;20.70;99.90
13659;DHT22;6902;52.158;11.574;2022-08-19T09:24:57;20.70;99.90
13659;DHT22;6902;52.158;11.574;2022-08-19T09:27:25;20.70;99.90
13659;DHT22;6902;52.158;11.574;2022-08-19T09:29:54;20.80;99.90
13659;DHT22;6902;52.158;11.574;2022-08-19T09:32:22;20.80;99.90
13659;DHT22;6902;52.158;11.574;2022-08-19T09:34:50;20.90;99.90
13659;DHT22;6902;52.158;11.574;2022-08-19T09:37:20;20.90;99.90
13659;DHT22;6902;52.158;11.574;2022-08-19T09:39:47;20.90;99.90
13659;DHT22;6902;52.158;11.574;2022-08-19T09:42:15;20.90;99.90
13659;DHT22;6902;52.158;11.574;2022-08-19T09:44:42;21.00;99.90
13659;DHT22;6902;52.158;11.574;2022-08-19T09:47:12;21.00;99.90
13659;DHT22;6902;52.158;11.574;2022-08-19T09:49:40;21.10;99.90
13659;DHT22;6902;52.158;11.574;2022-08-19T09:52:08;21.20;99.90
13659;DHT22;6902;52.158;11.574;2022-08-19T09:54:36;21.30;99.90
13659;DHT22;6902;52.158;11.574;2022-08-19T09:57:03;21.40;99.90
13659;DHT22;6902;52.158;11.574;2022-08-19T09:59:30;21.60;99.90
13659;DHT22;6902;52.158;11.574;2022-08-19T10:01:57;21.80;99.90
13659;DHT22;6902;52.158;11.574;2022-08-19T10:04:26;21.90;99.90
13659;DHT22;6902;52.158;11.574;2022-08-19T10:07:14;21.90;99.90
13659;DHT22;6902;52.158;11.574;2022-08-19T10:09:41;22.00;99.90
13659;DHT22;6902;52.158;11.574;2022-08-19T10:12:09;22.00;99.90
13659;DHT22;6902;52.158;11.574;2022-08-19T10:14:36;22.00;99.90
13659;DHT22;6902;52.158;11.574;2022-08-19T10:17:03;22.00;99.90
13659;DHT22;6902;52.158;11.574;2022-08-19T10:19:31;22.00;99.90
13659;DHT22;6902;52.158;11.574;2022-08-19T10:22:05;21.90;99.90
13659;DHT22;6902;52.158;11.574;2022-08-19T10:24:33;21.90;99.90
13659;DHT22;6902;52.158;11.574;2022-08-19T10:27:01;21.90;99.90
13659;DHT22;6902;52.158;11.574;2022-08-19T10:29:29;21.90;99.90
13659;DHT22;6902;52.158;11.574;2022-08-19T10:31:57;22.00;99.90
13659;DHT22;6902;52.158;11.574;2022-08-19T10:34:26;22.00;99.90
13659;DHT22;6902;52.158;11.574;2022-08-19T10:36:55;22.10;99.90
13659;DHT22;6902;52.158;11.574;2022-08-19T10:39:22;22.10;99.90
13659;DHT22;6902;52.158;11.574;2022-08-19T10:41:49;22.10;99.90
13659;DHT22;6902;52.158;11.574;2022-08-19T10:44:16;22.00;99.90
13659;DHT22;6902;52.158;11.574;2022-08-19T10:46:44;22.00;99.90
13659;DHT22;6902;52.158;11.574;2022-08-19T10:49:12;22.00;99.90
13659;DHT22;6902;52.158;11.574;2022-08-19T10:51:40;22.00;99.90
13659;DHT22;6902;52.158;11.574;2022-08-19T10:54:27;22.00;99.90
13659;DHT22;6902;52.158;11.574;2022-08-19T10:57:08;22.10;99.90
13659;DHT22;6902;52.158;11.574;2022-08-19T10:59:35;22.20;99.90
13659;DHT22;6902;52.158;11.574;2022-08-19T11:02:04;22.30;99.90
13659;DHT22;6902;52.158;11.574;2022-08-19T11:04:31;22.40;99.90
13659;DHT22;6902;52.158;11.574;2022-08-19T11:06:58;22.40;99.90
13659;DHT22;6902;52.158;11.574;2022-08-19T11:09:27;22.40;99.90
13659;DHT22;6902;52.158;11.574;2022-08-19T11:11:54;22.50;99.90
13659;DHT22;6902;52.158;11.574;2022-08-19T11:14:23;22.50;99.90
13659;DHT22;6902;52.158;11.574;2022-08-19T11:16:51;22.50;99.90
13659;DHT22;6902;52.158;11.574;2022-08-19T11:19:22;22.50;99.90
13659;DHT22;6902;52.158;11.574;2022-08-19T11:21:50;22.50;99.90
13659;DHT22;6902;52.158;11.574;2022-08-19T11:24:20;22.60;99.90
13659;DHT22;6902;52.158;11.574;2022-08-19T11:26:51;22.60;99.90
13659;DHT22;6902;52.158;11.574;2022-08-19T11:29:22;22.70;99.90
13659;DHT22;6902;52.158;11.574;2022-08-19T11:31:51;22.80;99.90
13659;DHT22;6902;52.158;11.574;2022-08-19T11:34:20;22.90;99.90
13659;DHT22;6902;52.158;11.574;2022-08-19T11:36:49;23.00;99.90
13659;DHT22;6902;52.158;11.574;2022-08-19T11:39:19;23.10;99.90
13659;DHT22;6902;52.158;11.574;2022-08-19T11:41:49;23.20;99.90
13659;DHT22;6902;52.158;11.574;2022-08-19T11:44:16;23.20;99.90
13659;DHT22;6902;52.158;11.574;2022-08-19T11:46:44;23.20;99.90
13659;DHT22;6902;52.158;11.574;2022-08-19T11:49:13;23.30;99.90
13659;DHT22;6902;52.158;11.574;2022-08-19T11:51:41;23.30;99.90
13659;DHT22;6902;52.158;11.574;2022-08-19T11:54:09;23.30;99.90
13659;DHT22;6902;52.158;11.574;2022-08-19T11:56:37;23.30;99.90
13659;DHT22;6902;52.158;11.574;2022-08-19T11:59:05;23.30;99.90
13659;DHT22;6902;52.158;11.574;2022-08-19T12:01:33;23.40;99.90
13659;DHT22;6902;52.158;11.574;2022-08-19T12:04:00;23.50;99.90
13659;DHT22;6902;52.158;11.574;2022-08-19T12:06:29;23.60;99.90
13659;DHT22;6902;52.158;11.574;2022-08-19T12:08:58;23.70;99.90
13659;DHT22;6902;52.158;11.574;2022-08-19T12:11:26;23.80;99.90
13659;DHT22;6902;52.158;11.574;2022-08-19T12:13:53;23.80;99.90
13659;DHT22;6902;52.158;11.574;2022-08-19T12:16:23;23.90;99.90
13659;DHT22;6902;52.158;11.574;2022-08-19T12:18:51;24.00;99.90
13659;DHT22;6902;52.158;11.574;2022-08-19T12:21:20;24.10;99.90
13659;DHT22;6902;52.158;11.574;2022-08-19T12:23:49;24.10;99.90
13659;DHT22;6902;52.158;11.574;2022-08-19T12:26:17;24.10;99.90
13659;DHT22;6902;52.158;11.574;2022-08-19T12:28:44;24.10;99.90
13659;DHT22;6902;52.158;11.574;2022-08-19T12:31:14;24.10;99.90
13659;DHT22;6902;52.158;11.574;2022-08-19T12:33:43;24.20;99.90
13659;DHT22;6902;52.158;11.574;2022-08-19T12:36:12;24.20;99.90
13659;DHT22;6902;52.158;11.574;2022-08-19T12:38:39;24.30;99.90
13659;DHT22;6902;52.158;11.574;2022-08-19T12:41:08;24.40;99.90
13659;DHT22;6902;52.158;11.574;2022-08-19T12:43:36;24.50;99.90
13659;DHT22;6902;52.158;11.574;2022-08-19T12:46:04;24.70;99.90
13659;DHT22;6902;52.158;11.574;2022-08-19T12:48:31;24.70;99.90
13659;DHT22;6902;52.158;11.574;2022-08-19T12:51:00;24.70;99.90
13659;DHT22;6902;52.158;11.574;2022-08-19T12:53:27;24.80;99.90
13659;DHT22;6902;52.158;11.574;2022-08-19T12:55:55;24.90;99.90
13659;DHT22;6902;52.158;11.574;2022-08-19T12:58:22;24.80;99.90
13659;DHT22;6902;52.158;11.574;2022-08-19T13:00:49;24.70;99.90
13659;DHT22;6902;52.158;11.574;2022-08-19T13:03:16;24.60;99.90
13659;DHT22;6902;52.158;11.574;2022-08-19T13:05:43;24.60;99.90
13659;DHT22;6902;52.158;11.574;2022-08-19T13:08:12;24.50;99.90
13659;DHT22;6902;52.158;11.574;2022-08-19T13:10:38;24.30;99.90
13659;DHT22;6902;52.158;11.574;2022-08-19T13:13:07;24.30;99.90
13659;DHT22;6902;52.158;11.574;2022-08-19T13:15:37;24.40;99.90
13659;DHT22;6902;52.158;11.574;2022-08-19T13:18:06;24.40;99.90
13659;DHT22;6902;52.158;11.574;2022-08-19T13:20:35;24.40;99.90
13659;DHT22;6902;52.158;11.574;2022-08-19T13:23:03;24.40;99.90
13659;DHT22;6902;52.158;11.574;2022-08-19T13:25:32;24.40;99.90
13659;DHT22;6902;52.158;11.574;2022-08-19T13:27:59;24.40;99.90
13659;DHT22;6902;52.158;11.574;2022-08-19T13:30:26;24.40;99.90
13659;DHT22;6902;52.158;11.574;2022-08-19T13:33:11;24.50;99.90
13659;DHT22;6902;52.158;11.574;2022-08-19T13:35:44;24.50;99.90
13659;DHT22;6902;52.158;11.574;2022-08-19T13:38:12;24.50;99.90
13659;DHT22;6902;52.158;11.574;2022-08-19T13:40:41;24.50;99.90
13659;DHT22;6902;52.158;11.574;2022-08-19T13:43:09;24.50;99.90
13659;DHT22;6902;52.158;11.574;2022-08-19T13:45:36;24.30;99.90
13659;DHT22;6902;52.158;11.574;2022-08-19T13:48:05;24.30;99.90
13659;DHT22;6902;52.158;11.574;2022-08-19T13:50:35;24.20;99.90
13659;DHT22;6902;52.158;11.574;2022-08-19T13:53:06;24.20;99.90
13659;DHT22;6902;52.158;11.574;2022-08-19T13:55:33;24.20;99.90
13659;DHT22;6902;52.158;11.574;2022-08-19T13:58:03;24.20;99.90
13659;DHT22;6902;52.158;11.574;2022-08-19T14:00:34;24.30;99.90
13659;DHT22;6902;52.158;11.574;2022-08-19T14:03:02;24.30;99.90
13659;DHT22;6902;52.158;11.574;2022-08-19T14:05:31;24.40;99.90
13659;DHT22;6902;52.158;11.574;2022-08-19T14:07:58;24.50;99.90
13659;DHT22;6902;52.158;11.574;2022-08-19T14:10:26;24.50;99.90
13659;DHT22;6902;52.158;11.574;2022-08-19T14:12:55;24.60;99.90
13659;DHT22;6902;52.158;11.574;2022-08-19T14:15:25;24.50;99.90
13659;DHT22;6902;52.158;11.574;2022-08-19T14:17:53;24.50;99.90
13659;DHT22;6902;52.158;11.574;2022-08-19T14:20:21;24.50;99.90
13659;DHT22;6902;52.158;11.574;2022-08-19T14:22:49;24.50;99.90
13659;DHT22;6902;52.158;11.574;2022-08-19T14:25:18;24.50;99.90
13659;DHT22;6902;52.158;11.574;2022-08-19T14:27:46;24.50;99.90
13659;DHT22;6902;52.158;11.574;2022-08-19T14:30:16;24.50;99.90
13659;DHT22;6902;52.158;11.574;2022-08-19T14:32:45;24.50;99.90
13659;DHT22;6902;52.158;11.574;2022-08-19T14:35:13;24.50;99.90
13659;DHT22;6902;52.158;11.574;2022-08-19T14:37:42;24.50;99.90
13659;DHT22;6902;52.158;11.574;2022-08-19T14:40:10;24.40;99.90
13659;DHT22;6902;52.158;11.574;2022-08-19T14:42:37;24.40;99.90
13659;DHT22;6902;52.158;11.574;2022-08-19T14:45:06;24.40;99.90
13659;DHT22;6902;52.158;11.574;2022-08-19T14:47:33;24.40;99.90
13659;DHT22;6902;52.158;11.574;2022-08-19T14:50:01;24.40;99.90
13659;DHT22;6902;52.158;11.574;2022-08-19T14:52:28;24.40;99.90
13659;DHT22;6902;52.158;11.574;2022-08-19T14:54:55;24.30;99.90
13659;DHT22;6902;52.158;11.574;2022-08-19T14:57:22;24.30;99.90
13659;DHT22;6902;52.158;11.574;2022-08-19T14:59:49;24.20;99.90
13659;DHT22;6902;52.158;11.574;2022-08-19T15:02:16;24.20;99.90
13659;DHT22;6902;52.158;11.574;2022-08-19T15:04:43;24.20;99.90
13659;DHT22;6902;52.158;11.574;2022-08-19T15:07:11;24.20;99.90
13659;DHT22;6902;52.158;11.574;2022-08-19T15:09:38;24.20;99.90
13659;DHT22;6902;52.158;11.574;2022-08-19T15:12:06;24.10;99.90
13659;DHT22;6902;52.158;11.574;2022-08-19T15:14:36;24.10;99.90
13659;DHT22;6902;52.158;11.574;2022-08-19T15:17:04;24.10;99.90
13659;DHT22;6902;52.158;11.574;2022-08-19T15:19:32;24.10;99.90
13659;DHT22;6902;52.158;11.574;2022-08-19T15:22:02;24.10;99.90
13659;DHT22;6902;52.158;11.574;2022-08-19T15:24:30;24.00;99.90
13659;DHT22;6902;52.158;11.574;2022-08-19T15:26:58;24.00;99.90
13659;DHT22;6902;52.158;11.574;2022-08-19T15:29:25;24.00;99.90
13659;DHT22;6902;52.158;11.574;2022-08-19T15:31:53;24.00;99.90
13659;DHT22;6902;52.158;11.574;2022-08-19T15:34:23;24.00;99.90
13659;DHT22;6902;52.158;11.574;2022-08-19T15:36:51;24.00;99.90
13659;DHT22;6902;52.158;11.574;2022-08-19T15:39:18;24.00;99.90
13659;DHT22;6902;52.158;11.574;2022-08-19T15:41:46;24.00;99.90
13659;DHT22;6902;52.158;11.574;2022-08-19T15:44:16;24.00;99.90
13659;DHT22;6902;52.158;11.574;2022-08-19T15:46:45;23.90;99.90
13659;DHT22;6902;52.158;11.574;2022-08-19T15:49:16;23.90;99.90
13659;DHT22;6902;52.158;11.574;2022-08-19T15:51:45;23.90;99.90
13659;DHT22;6902;52.158;11.574;2022-08-19T15:54:14;23.90;99.90
13659;DHT22;6902;52.158;11.574;2022-08-19T15:56:41;23.90;99.90
13659;DHT22;6902;52.158;11.574;2022-08-19T15:59:34;23.80;99.90
13659;DHT22;6902;52.158;11.574;2022-08-19T16:02:21;23.80;99.90
13659;DHT22;6902;52.158;11.574;2022-08-19T16:05:09;23.80;99.90